createdAt,value
2023-05-09T00:02:14.051Z,39.65
2023-05-09T00:04:40.972Z,38.97
2023-05-09T00:07:07.645Z,32.95
2023-05-09T00:09:38.629Z,38.47
2023-05-09T00:12:07.996Z,39.78
2023-05-09T00:14:37.062Z,39.20
2023-05-09T00:17:06.037Z,37.45
2023-05-09T00:19:33.298Z,42.17
2023-05-09T00:22:02.552Z,36.83
2023-05-09T00:24:29.183Z,39.28
2023-05-09T00:26:55.870Z,44.47
2023-05-09T00:29:24.481Z,43.33
2023-05-09T00:31:51.042Z,37.03
2023-05-09T00:34:18.029Z,42.75
2023-05-09T00:36:44.611Z,38.47
2023-05-09T00:39:11.101Z,49.25
2023-05-09T00:41:37.630Z,44.40
2023-05-09T00:44:06.936Z,42.80
2023-05-09T00:46:36.024Z,43.83
2023-05-09T00:49:02.579Z,41.20
2023-05-09T00:51:29.355Z,41.53
2023-05-09T00:53:58.240Z,40.45
2023-05-09T00:56:31.580Z,48.75
2023-05-09T00:58:58.582Z,42.38
2023-05-09T01:01:27.894Z,45.77
2023-05-09T01:03:57.934Z,36.88
2023-05-09T01:06:39.734Z,38.03
2023-05-09T01:09:24.398Z,44.50
2023-05-09T01:12:20.042Z,39.80
2023-05-09T01:14:55.529Z,45.88
2023-05-09T01:17:33.892Z,39.15
2023-05-09T01:20:11.092Z,39.53
2023-05-09T01:22:46.139Z,42.47
2023-05-09T01:25:15.923Z,40.03
2023-05-09T01:27:54.736Z,42.65
2023-05-09T01:30:21.757Z,36.80
2023-05-09T01:32:54.226Z,41.67
2023-05-09T01:35:26.365Z,45.22
2023-05-09T01:37:54.792Z,41.25
2023-05-09T01:40:26.120Z,45.40
2023-05-09T01:42:59.358Z,44.85
2023-05-09T01:45:32.747Z,40.67
2023-05-09T01:48:02.597Z,42.97
2023-05-09T01:50:33.974Z,41.85
2023-05-09T01:53:06.506Z,43.17
2023-05-09T01:55:35.973Z,38.03
2023-05-09T01:58:05.906Z,42.95
2023-05-09T02:00:35.227Z,41.67
2023-05-09T02:03:03.827Z,43.10
2023-05-09T02:05:32.100Z,44.55
2023-05-09T02:08:01.656Z,45.08
2023-05-09T02:10:28.853Z,42.88
2023-05-09T02:12:57.915Z,48.72
2023-05-09T02:15:24.771Z,40.60
2023-05-09T02:17:51.440Z,40.60
2023-05-09T02:20:20.505Z,42.08
2023-05-09T02:22:47.788Z,44.85
2023-05-09T02:25:19.629Z,45.67
2023-05-09T02:27:46.854Z,46.00
2023-05-09T02:30:23.295Z,43.10
2023-05-09T02:32:52.164Z,46.25
2023-05-09T02:35:19.546Z,43.67
2023-05-09T02:37:47.321Z,45.70
2023-05-09T02:40:14.477Z,44.13
2023-05-09T02:42:43.518Z,50.10
2023-05-09T02:45:12.953Z,45.42
2023-05-09T02:47:39.895Z,48.80
2023-05-09T02:50:06.876Z,45.78
2023-05-09T02:52:35.954Z,42.83
2023-05-09T02:55:03.704Z,46.15
2023-05-09T02:57:32.526Z,47.10
2023-05-09T03:00:01.270Z,47.30
2023-05-09T03:02:27.907Z,46.25
2023-05-09T03:04:56.761Z,47.10
2023-05-09T03:07:23.277Z,44.25
2023-05-09T03:09:51.856Z,39.42
2023-05-09T03:12:18.307Z,39.05
2023-05-09T03:14:47.329Z,44.08
2023-05-09T03:17:17.324Z,42.92
2023-05-09T03:19:43.777Z,46.08
2023-05-09T03:22:15.077Z,49.47
2023-05-09T03:24:43.892Z,44.40
2023-05-09T03:27:10.535Z,49.92
2023-05-09T03:29:39.012Z,50.65
2023-05-09T03:32:08.024Z,54.60
2023-05-09T03:34:34.531Z,43.50
2023-05-09T03:37:00.947Z,45.60
2023-05-09T03:39:27.419Z,46.90
2023-05-09T03:41:56.220Z,47.88
2023-05-09T03:44:27.532Z,44.05
2023-05-09T03:46:54.026Z,43.08
2023-05-09T03:49:23.523Z,50.47
2023-05-09T03:51:52.062Z,43.35
2023-05-09T03:54:20.928Z,49.00
2023-05-09T03:56:49.718Z,41.85
2023-05-09T03:59:16.276Z,42.25
2023-05-09T04:01:42.907Z,36.53
2023-05-09T04:04:09.520Z,42.60
2023-05-09T04:06:40.650Z,40.22
2023-05-09T04:09:09.808Z,37.22
2023-05-09T04:11:38.808Z,41.47
2023-05-09T04:14:07.104Z,34.38
2023-05-09T04:16:36.079Z,37.58
2023-05-09T04:19:04.890Z,32.30
2023-05-09T04:21:31.854Z,36.72
2023-05-09T04:24:00.707Z,36.38
2023-05-09T04:26:27.307Z,36.10
2023-05-09T04:28:53.793Z,33.88
2023-05-09T04:31:20.463Z,25.73
2023-05-09T04:33:49.488Z,37.78
2023-05-09T04:36:16.152Z,31.17
2023-05-09T04:38:42.671Z,29.90
2023-05-09T04:41:09.169Z,25.20
2023-05-09T04:43:37.968Z,27.15
2023-05-09T04:46:04.452Z,21.58
2023-05-09T04:48:33.064Z,26.67
2023-05-09T04:50:59.559Z,25.30
2023-05-09T04:53:26.784Z,22.13
2023-05-09T04:55:53.337Z,24.42
2023-05-09T04:58:20.301Z,23.75
2023-05-09T05:00:46.824Z,22.15
2023-05-09T05:03:15.562Z,27.60
2023-05-09T05:05:44.679Z,27.80
2023-05-09T05:08:11.262Z,24.30
2023-05-09T05:10:42.563Z,22.50
2023-05-09T05:13:11.398Z,21.70
2023-05-09T05:15:40.007Z,22.15
2023-05-09T05:18:06.548Z,18.83
2023-05-09T05:20:33.570Z,23.23
2023-05-09T05:23:02.522Z,26.33
2023-05-09T05:25:29.029Z,25.60
2023-05-09T05:27:58.013Z,27.73
2023-05-09T05:30:27.060Z,20.20
2023-05-09T05:32:56.103Z,24.95
2023-05-09T05:35:23.416Z,23.13
2023-05-09T05:37:50.009Z,21.88
2023-05-09T05:40:18.876Z,21.25
2023-05-09T05:42:47.826Z,19.48
2023-05-09T05:45:14.698Z,21.88
2023-05-09T05:47:43.868Z,17.63
2023-05-09T05:50:13.316Z,16.58
2023-05-09T05:52:42.269Z,25.77
2023-05-09T05:55:13.873Z,19.17
2023-05-09T05:57:42.940Z,19.15
2023-05-09T06:00:11.384Z,20.13
2023-05-09T06:02:43.547Z,22.58
2023-05-09T06:05:11.206Z,19.02
2023-05-09T06:07:37.895Z,22.45
2023-05-09T06:10:04.736Z,17.58
2023-05-09T06:12:31.440Z,18.55
2023-05-09T06:15:00.618Z,16.90
2023-05-09T06:17:27.198Z,15.98
2023-05-09T06:19:56.051Z,18.50
2023-05-09T06:22:22.703Z,20.63
2023-05-09T06:24:51.456Z,16.60
2023-05-09T06:27:17.983Z,15.73
2023-05-09T06:29:47.032Z,18.63
2023-05-09T06:32:18.676Z,15.43
2023-05-09T06:34:48.144Z,15.23
2023-05-09T06:37:16.944Z,15.85
2023-05-09T06:39:43.466Z,17.83
2023-05-09T06:42:10.043Z,18.65
2023-05-09T06:44:39.048Z,16.50
2023-05-09T06:47:05.599Z,16.77
2023-05-09T06:49:32.156Z,15.43
2023-05-09T06:51:58.654Z,18.48
2023-05-09T06:54:29.750Z,18.17
2023-05-09T06:56:58.516Z,14.90
2023-05-09T06:59:25.160Z,17.55
2023-05-09T07:01:54.177Z,20.40
2023-05-09T07:04:20.779Z,16.30
2023-05-09T07:06:49.801Z,19.08
2023-05-09T07:09:20.564Z,16.70
2023-05-09T07:11:47.361Z,18.48
2023-05-09T07:14:13.915Z,21.05
2023-05-09T07:16:40.494Z,15.80
2023-05-09T07:19:07.010Z,18.45
2023-05-09T07:21:35.923Z,15.05
2023-05-09T07:24:04.731Z,17.08
2023-05-09T07:26:35.674Z,17.77
2023-05-09T07:29:02.314Z,17.92
2023-05-09T07:31:29.408Z,19.23
2023-05-09T07:34:02.971Z,13.70
2023-05-09T07:36:29.452Z,14.82
2023-05-09T07:39:00.431Z,14.95
2023-05-09T07:41:26.907Z,20.45
2023-05-09T07:43:55.543Z,16.48
2023-05-09T07:46:24.406Z,13.60
2023-05-09T07:48:51.085Z,16.95
2023-05-09T07:51:17.733Z,19.90
2023-05-09T07:53:46.812Z,13.43
2023-05-09T07:56:17.826Z,13.73
2023-05-09T07:58:44.282Z,13.63
2023-05-09T08:01:13.327Z,13.93
2023-05-09T08:03:42.186Z,15.50
2023-05-09T08:06:11.133Z,17.02
2023-05-09T08:08:38.976Z,16.90
2023-05-09T08:11:10.206Z,15.70
2023-05-09T08:13:38.961Z,13.00
2023-05-09T08:16:05.839Z,12.13
2023-05-09T08:18:32.413Z,15.82
2023-05-09T08:20:59.754Z,12.00
2023-05-09T08:23:30.328Z,15.00
2023-05-09T08:25:59.457Z,12.32
2023-05-09T08:28:28.840Z,14.32
2023-05-09T08:30:58.198Z,14.35
2023-05-09T08:33:24.981Z,12.25
2023-05-09T08:35:56.953Z,14.13
2023-05-09T08:38:24.375Z,11.65
2023-05-09T08:40:50.927Z,13.23
2023-05-09T08:43:20.571Z,14.27
2023-05-09T08:45:51.633Z,12.82
2023-05-09T08:48:19.182Z,12.45
2023-05-09T08:50:48.197Z,11.80
2023-05-09T08:53:15.169Z,10.23
2023-05-09T08:55:41.788Z,10.73
2023-05-09T08:58:16.699Z,10.32
2023-05-09T09:00:48.825Z,10.13
2023-05-09T09:03:15.609Z,7.30
2023-05-09T09:05:47.411Z,10.10
2023-05-09T09:08:17.625Z,7.60
2023-05-09T09:10:47.566Z,6.25
2023-05-09T09:13:16.760Z,7.75
2023-05-09T09:15:47.111Z,8.52
2023-05-09T09:18:20.969Z,8.60
2023-05-09T09:21:04.956Z,8.02
2023-05-09T09:23:33.286Z,9.02
2023-05-09T09:26:04.812Z,9.30
2023-05-09T09:28:31.538Z,6.22
2023-05-09T09:31:00.486Z,7.35
2023-05-09T09:33:28.728Z,7.28
2023-05-09T09:36:00.637Z,6.88
2023-05-09T09:38:31.137Z,7.60
2023-05-09T09:41:00.761Z,5.95
2023-05-09T09:43:31.765Z,6.82
2023-05-09T09:46:04.892Z,6.30
2023-05-09T09:48:33.990Z,6.20
2023-05-09T09:51:18.317Z,4.93
2023-05-09T09:53:47.371Z,4.90
2023-05-09T09:56:16.431Z,5.57
2023-05-09T09:58:45.216Z,6.35
2023-05-09T10:01:20.789Z,6.18
2023-05-09T10:03:49.630Z,5.78
2023-05-09T10:06:18.600Z,6.28
2023-05-09T10:08:49.171Z,5.72
2023-05-09T10:11:16.384Z,7.63
2023-05-09T10:13:43.743Z,6.57
2023-05-09T10:16:11.554Z,5.72
2023-05-09T10:21:12.065Z,9.27
2023-05-09T10:23:45.378Z,8.43
2023-05-09T10:26:28.711Z,8.07
2023-05-09T10:28:57.112Z,6.93
2023-05-09T10:31:28.856Z,6.70
2023-05-09T10:34:01.722Z,6.28
2023-05-09T10:36:31.149Z,7.90
2023-05-09T10:38:57.796Z,7.63
2023-05-09T10:41:29.511Z,6.60
2023-05-09T10:43:59.163Z,7.10
2023-05-09T10:46:27.532Z,7.50
2023-05-09T10:48:57.259Z,5.43
2023-05-09T10:51:27.725Z,6.28
2023-05-09T10:53:55.947Z,6.30
2023-05-09T10:56:33.406Z,7.75
2023-05-09T10:59:00.581Z,6.93
2023-05-09T11:01:42.520Z,8.07
2023-05-09T11:04:17.030Z,5.35
2023-05-09T11:06:57.693Z,6.18
2023-05-09T11:09:32.691Z,5.15
2023-05-09T11:12:08.062Z,6.55
2023-05-09T11:14:45.682Z,6.50
2023-05-09T11:17:28.531Z,9.40
2023-05-09T11:20:00.758Z,7.25
2023-05-09T11:22:33.899Z,7.15
2023-05-09T11:25:07.359Z,8.80
2023-05-09T11:27:42.759Z,11.60
2023-05-09T11:30:14.809Z,6.43
2023-05-09T11:32:43.175Z,5.82
2023-05-09T11:35:15.305Z,4.82
2023-05-09T11:38:01.582Z,5.63
2023-05-09T11:40:31.400Z,5.88
2023-05-09T11:42:59.324Z,7.05
2023-05-09T11:48:00.539Z,4.75
2023-05-09T11:50:27.298Z,5.28
2023-05-09T11:52:54.306Z,4.50
2023-05-09T11:55:22.791Z,6.10
2023-05-09T11:57:54.338Z,6.78
2023-05-09T12:00:22.966Z,4.80
2023-05-09T12:02:52.224Z,5.78
2023-05-09T12:05:20.773Z,9.15
2023-05-09T12:07:50.216Z,6.00
2023-05-09T12:10:20.074Z,5.90
2023-05-09T12:12:50.835Z,4.75
2023-05-09T12:15:21.530Z,4.50
2023-05-09T12:18:04.483Z,4.93
2023-05-09T12:20:46.110Z,4.25
2023-05-09T12:23:15.636Z,5.93
2023-05-09T12:25:56.236Z,5.18
2023-05-09T12:28:28.974Z,4.68
2023-05-09T12:31:01.318Z,6.10
2023-05-09T12:33:28.328Z,5.18
2023-05-09T12:36:11.033Z,4.10
2023-05-09T12:38:38.050Z,4.53
2023-05-09T12:41:22.335Z,4.25
2023-05-09T12:43:59.062Z,4.50
2023-05-09T12:46:28.467Z,4.57
2023-05-09T12:48:57.550Z,4.43
2023-05-09T12:51:26.328Z,4.00
2023-05-09T12:53:55.548Z,3.67
2023-05-09T12:56:25.243Z,3.90
2023-05-09T12:58:59.732Z,4.25
2023-05-09T13:01:29.961Z,6.32
2023-05-09T13:04:10.489Z,4.88
2023-05-09T13:06:48.684Z,3.92
2023-05-09T13:09:18.283Z,3.25
2023-05-09T13:11:46.646Z,3.80
2023-05-09T13:14:17.960Z,5.60
2023-05-09T13:16:44.776Z,2.92
2023-05-09T13:19:11.416Z,3.60
2023-05-09T13:21:40.566Z,3.50
2023-05-09T13:24:07.363Z,4.07
2023-05-09T13:26:36.146Z,4.20
2023-05-09T13:29:02.776Z,6.15
2023-05-09T13:31:29.525Z,4.60
2023-05-09T13:33:56.040Z,5.10
2023-05-09T13:36:25.123Z,3.60
2023-05-09T13:38:51.626Z,4.95
2023-05-09T13:41:24.043Z,3.63
2023-05-09T13:43:51.135Z,4.20
2023-05-09T13:46:20.158Z,3.40
2023-05-09T13:48:49.013Z,4.43
2023-05-09T13:51:17.845Z,7.65
2023-05-09T13:53:44.385Z,3.80
2023-05-09T13:56:13.884Z,3.15
2023-05-09T13:58:45.485Z,3.65
2023-05-09T14:01:14.260Z,5.13
2023-05-09T14:03:43.146Z,4.57
2023-05-09T14:06:10.478Z,3.78
2023-05-09T14:08:37.178Z,3.20
2023-05-09T14:11:03.857Z,3.42
2023-05-09T14:13:32.115Z,4.95
2023-05-09T14:15:59.193Z,3.15
2023-05-09T14:18:25.771Z,3.17
2023-05-09T14:20:54.703Z,3.83
2023-05-09T14:23:22.376Z,3.00
2023-05-09T14:25:51.250Z,3.58
2023-05-09T14:28:17.745Z,3.28
2023-05-09T14:30:44.487Z,3.30
2023-05-09T14:33:14.448Z,2.92
2023-05-09T14:35:44.030Z,3.25
2023-05-09T14:38:12.474Z,4.68
2023-05-09T14:40:39.115Z,3.15
2023-05-09T14:43:09.626Z,2.92
2023-05-09T14:45:39.144Z,4.97
2023-05-09T14:48:05.827Z,2.95
2023-05-09T14:50:34.675Z,3.42
2023-05-09T14:53:01.997Z,4.78
2023-05-09T14:55:28.564Z,2.90
2023-05-09T14:57:57.520Z,3.25
2023-05-09T15:00:25.679Z,3.20
2023-05-09T15:02:54.705Z,3.80
2023-05-09T15:05:21.372Z,4.43
2023-05-09T15:07:47.836Z,2.65
2023-05-09T15:10:16.832Z,5.57
2023-05-09T15:12:48.318Z,2.90
2023-05-09T15:15:18.302Z,3.10
2023-05-09T15:17:50.033Z,3.70
2023-05-09T15:20:20.143Z,3.33
2023-05-09T15:22:47.860Z,2.97
2023-05-09T15:25:17.676Z,3.10
2023-05-09T15:27:46.798Z,2.85
2023-05-09T15:30:16.219Z,3.28
2023-05-09T15:32:45.938Z,2.80
2023-05-09T15:35:15.788Z,2.53
2023-05-09T15:37:42.305Z,2.33
2023-05-09T15:40:09.318Z,3.05
2023-05-09T15:42:36.349Z,2.83
2023-05-09T15:45:05.124Z,3.00
2023-05-09T15:47:34.071Z,3.20
2023-05-09T15:50:00.630Z,2.60
2023-05-09T15:52:28.122Z,2.50
2023-05-09T15:54:58.063Z,2.80
2023-05-09T15:57:27.236Z,2.63
2023-05-09T15:59:55.882Z,2.85
2023-05-09T16:02:24.902Z,3.42
2023-05-09T16:04:53.715Z,3.13
2023-05-09T16:07:22.586Z,2.70
2023-05-09T16:09:49.201Z,4.47
2023-05-09T16:12:15.812Z,3.08
2023-05-09T16:14:47.332Z,2.33
2023-05-09T16:17:13.986Z,2.45
2023-05-09T16:19:41.020Z,2.50
2023-05-09T16:22:07.769Z,3.10
2023-05-09T16:24:34.302Z,2.58
2023-05-09T16:27:00.792Z,2.20
2023-05-09T16:29:29.424Z,2.25
2023-05-09T16:31:55.898Z,1.92
2023-05-09T16:34:24.817Z,2.33
2023-05-09T16:36:56.324Z,1.77
2023-05-09T16:39:23.823Z,1.20
2023-05-09T16:41:54.155Z,2.42
2023-05-09T16:44:21.743Z,1.40
2023-05-09T16:46:50.380Z,3.60
2023-05-09T16:49:16.911Z,1.85
2023-05-09T16:51:44.164Z,2.80
2023-05-09T16:54:13.218Z,1.30
2023-05-09T16:56:39.740Z,1.27
2023-05-09T16:59:06.220Z,1.30
2023-05-09T17:01:32.817Z,1.52
2023-05-09T17:04:06.894Z,1.33
2023-05-09T17:06:35.832Z,1.60
2023-05-09T17:09:02.412Z,2.95
2023-05-09T17:11:29.095Z,2.08
2023-05-09T17:13:55.643Z,1.60
2023-05-09T17:16:23.487Z,1.80
2023-05-09T17:18:53.149Z,1.58
2023-05-09T17:21:23.014Z,1.63
2023-05-09T17:23:49.525Z,2.17
2023-05-09T17:26:18.395Z,3.38
2023-05-09T17:28:47.913Z,1.75
2023-05-09T17:31:14.471Z,5.10
2023-05-09T17:33:43.557Z,2.15
2023-05-09T17:36:12.314Z,2.42
2023-05-09T17:38:41.141Z,2.55
2023-05-09T17:41:10.017Z,3.70
2023-05-09T17:43:41.378Z,2.30
2023-05-09T17:46:08.150Z,2.60
2023-05-09T17:48:34.716Z,2.42
2023-05-09T17:51:01.340Z,3.45
2023-05-09T17:53:30.707Z,2.63
2023-05-09T17:55:57.934Z,4.00
2023-05-09T17:58:24.531Z,3.25
2023-05-09T18:00:55.171Z,3.20
2023-05-09T18:03:21.818Z,2.88
2023-05-09T18:05:48.762Z,3.05
2023-05-09T18:08:15.298Z,3.40
2023-05-09T18:10:44.247Z,3.08
2023-05-09T18:13:10.919Z,5.28
2023-05-09T18:15:41.257Z,4.78
2023-05-09T18:18:08.072Z,3.58
2023-05-09T18:20:34.691Z,6.78
2023-05-09T18:23:03.744Z,3.50
2023-05-09T18:25:30.997Z,3.58
2023-05-09T18:27:57.506Z,3.95
2023-05-09T18:30:27.475Z,4.68
2023-05-09T18:33:00.192Z,6.03
2023-05-09T18:35:29.234Z,4.07
2023-05-09T18:37:57.933Z,5.20
2023-05-09T18:40:24.492Z,3.42
2023-05-09T18:42:51.001Z,3.60
2023-05-09T18:45:22.421Z,3.80
2023-05-09T18:47:51.413Z,3.72
2023-05-09T18:50:19.102Z,4.15
2023-05-09T18:52:50.540Z,3.58
2023-05-09T18:55:19.704Z,4.40
2023-05-09T18:57:46.786Z,4.00
2023-05-09T19:00:16.296Z,5.03
2023-05-09T19:02:47.814Z,4.80
2023-05-09T19:05:14.495Z,4.32
2023-05-09T19:07:41.066Z,3.97
2023-05-09T19:10:10.552Z,4.57
2023-05-09T19:12:39.527Z,4.55
2023-05-09T19:15:06.710Z,4.70
2023-05-09T19:17:33.273Z,5.07
2023-05-09T19:19:59.799Z,4.85
2023-05-09T19:22:28.959Z,4.93
2023-05-09T19:25:01.015Z,4.30
2023-05-09T19:27:27.912Z,4.80
2023-05-09T19:29:56.980Z,5.00
2023-05-09T19:32:23.515Z,4.97
2023-05-09T19:34:50.236Z,6.47
2023-05-09T19:37:19.213Z,6.35
2023-05-09T19:39:48.077Z,5.45
2023-05-09T19:42:19.553Z,7.10
2023-05-09T19:44:46.680Z,7.82
2023-05-09T19:47:15.720Z,5.83
2023-05-09T19:49:44.575Z,5.75
2023-05-09T19:52:11.109Z,6.13
2023-05-09T19:54:37.883Z,6.55
2023-05-09T19:57:06.980Z,5.80
2023-05-09T19:59:38.386Z,7.10
2023-05-09T20:02:07.162Z,5.70
2023-05-09T20:04:35.597Z,5.78
2023-05-09T20:07:03.105Z,4.47
2023-05-09T20:09:32.241Z,3.80
2023-05-09T20:12:01.903Z,4.45
2023-05-09T20:14:28.472Z,6.40
2023-05-09T20:16:54.978Z,4.65
2023-05-09T20:19:23.730Z,3.53
2023-05-09T20:21:55.014Z,9.07
2023-05-09T20:24:23.932Z,3.60
2023-05-09T20:26:50.912Z,3.03
2023-05-09T20:29:17.357Z,3.57
2023-05-09T20:31:48.688Z,3.45
2023-05-09T20:34:18.011Z,3.50
2023-05-09T20:36:48.402Z,4.18
2023-05-09T20:39:20.233Z,4.18
2023-05-09T20:41:52.437Z,5.03
2023-05-09T20:44:21.471Z,3.47
2023-05-09T20:46:50.669Z,3.60
2023-05-09T20:49:19.635Z,3.75
2023-05-09T20:51:48.579Z,5.00
2023-05-09T20:54:15.094Z,6.28
2023-05-09T20:56:44.031Z,3.30
2023-05-09T20:59:10.733Z,3.70
2023-05-09T21:01:37.364Z,4.90
2023-05-09T21:04:08.859Z,4.13
2023-05-09T21:06:38.528Z,6.50
2023-05-09T21:09:11.250Z,4.15
2023-05-09T21:11:40.070Z,4.22
2023-05-09T21:14:07.441Z,2.80
2023-05-09T21:16:36.180Z,3.75
2023-05-09T21:19:04.892Z,5.07
2023-05-09T21:21:34.244Z,3.97
2023-05-09T21:24:08.891Z,3.72
2023-05-09T21:26:36.348Z,4.60
2023-05-09T21:29:02.951Z,5.07
2023-05-09T21:31:29.453Z,4.38
2023-05-09T21:33:56.148Z,4.18
2023-05-09T21:36:25.269Z,5.07
2023-05-09T21:38:51.840Z,4.95
2023-05-09T21:41:18.338Z,4.43
2023-05-09T21:43:47.227Z,4.95
2023-05-09T21:46:13.761Z,6.70
2023-05-09T21:48:40.260Z,9.07
2023-05-09T21:51:07.596Z,5.38
2023-05-09T21:53:34.049Z,5.93
2023-05-09T21:56:00.604Z,5.60
2023-05-09T21:58:27.045Z,5.60
2023-05-09T22:00:55.889Z,5.90
2023-05-09T22:03:23.275Z,5.53
2023-05-09T22:05:49.806Z,5.63
2023-05-09T22:08:16.280Z,8.45
2023-05-09T22:10:47.498Z,9.70
2023-05-09T22:13:14.096Z,6.57
2023-05-09T22:15:41.767Z,7.80
2023-05-09T22:18:11.463Z,7.05
2023-05-09T22:20:37.961Z,7.00
2023-05-09T22:23:04.475Z,8.60
2023-05-09T22:25:31.114Z,6.60
2023-05-09T22:27:57.607Z,7.38
2023-05-09T22:30:26.899Z,8.38
2023-05-09T22:33:01.276Z,7.00
2023-05-09T22:35:32.692Z,8.93
2023-05-09T22:38:01.419Z,9.32
2023-05-09T22:40:30.238Z,6.97
2023-05-09T22:42:59.106Z,6.82
2023-05-09T22:45:25.810Z,7.32
2023-05-09T22:47:52.370Z,10.43
2023-05-09T22:50:19.141Z,8.30
2023-05-09T22:52:45.692Z,8.30
2023-05-09T22:55:17.121Z,9.25
2023-05-09T22:57:43.658Z,13.98
2023-05-09T23:00:10.937Z,9.65
2023-05-09T23:02:37.655Z,11.93
2023-05-09T23:05:04.464Z,10.50
2023-05-09T23:07:30.917Z,10.18
2023-05-09T23:09:59.843Z,16.23
2023-05-09T23:12:26.607Z,12.57
2023-05-09T23:14:57.971Z,10.80
2023-05-09T23:17:24.550Z,13.07
2023-05-09T23:19:53.486Z,12.60
2023-05-09T23:22:19.968Z,10.98
2023-05-09T23:24:48.746Z,11.30
2023-05-09T23:27:15.218Z,13.45
2023-05-09T23:29:41.844Z,9.50
2023-05-09T23:32:08.388Z,10.52
2023-05-09T23:34:36.777Z,11.10
2023-05-09T23:37:07.221Z,13.82
2023-05-09T23:39:36.228Z,11.30
2023-05-09T23:42:05.115Z,10.43
2023-05-09T23:44:31.618Z,15.77
2023-05-09T23:46:58.268Z,11.80
2023-05-09T23:49:27.240Z,9.65
2023-05-09T23:51:53.736Z,11.40
2023-05-09T23:54:24.471Z,12.68
2023-05-09T23:56:51.045Z,10.10
2023-05-09T23:59:19.962Z,13.20
